Terminal Aerodrome Forecast
Issued by NWS Norman, OK

Home | Current Version | Previous Version | Text Only | Print | Product List | Glossary On
Versions: 1 2 3 4 5 6 7 8 9 10 11 12 13 14 15 16 17 18 19 20 21 22 23 24
000
FTUS44 KOUN 270523
TAFSPS
TAF
KSPS 270523Z 2706/2806 35016G22KT P6SM SCT025 BKN080
      TEMPO 2708/2712 BKN025
     FM271200 36014KT P6SM BKN025
     FM271800 36013KT P6SM BKN035
     FM272100 36010KT P6SM SCT040 BKN080
     FM280100 35007KT P6SM SCT120=

USA.gov is the U.S. government's official web portal to all federal, state and local government web resources and services.